Time;durP1;ratioP1;P1;durP2;ratioP2;P2;SDS_P1;SDS_P2;PMS_P1;PMS_P2;Temp;Humidity;BMP_temperature;BMP_pressure;BME280_temperature;BME280_humidity;BME280_pressure;Samples;Min_cycle;Max_cycle;Signal;HPM_P1;HPM_P2
2022/02/16 00:01:38;;;;;;;29.57;15.70;;;5.20;89.00;;;;;;1924633;74;21047;-46
2022/02/16 00:04:08;;;;;;;30.15;18.55;;;5.20;88.90;;;;;;1924656;74;21019;-46
2022/02/16 00:06:41;;;;;;;24.63;17.55;;;5.20;89.00;;;;;;1905168;75;21059;-46
2022/02/16 00:09:10;;;;;;;29.60;18.05;;;5.20;88.90;;;;;;1905517;74;20995;-47
2022/02/16 00:11:40;;;;;;;34.20;17.20;;;5.20;88.90;;;;;;1905206;75;21051;-46
2022/02/16 00:14:09;;;;;;;29.82;17.17;;;5.20;88.50;;;;;;1905290;74;21081;-46
2022/02/16 00:16:39;;;;;;;26.33;16.57;;;5.10;88.10;;;;;;1905392;75;21077;-47
2022/02/16 00:19:08;;;;;;;24.60;16.62;;;5.00;88.30;;;;;;1905237;75;21089;-46
2022/02/16 00:21:37;;;;;;;27.15;17.40;;;5.00;88.70;;;;;;1905354;75;21000;-46
2022/02/16 00:24:07;;;;;;;34.50;16.67;;;5.00;88.70;;;;;;1905270;75;21023;-47
2022/02/16 00:26:37;;;;;;;28.92;16.70;;;5.10;88.80;;;;;;1905295;75;21106;-46
2022/02/16 00:29:07;;;;;;;32.45;17.07;;;5.10;89.00;;;;;;1905256;75;21089;-47
2022/02/16 00:31:36;;;;;;;29.82;16.80;;;5.10;88.90;;;;;;1905194;75;20996;-46
2022/02/16 00:34:06;;;;;;;31.52;17.87;;;5.10;88.90;;;;;;1905291;75;21019;-47
2022/02/16 00:36:35;;;;;;;31.25;16.67;;;5.10;88.90;;;;;;1905375;75;21019;-46
2022/02/16 00:39:06;;;;;;;25.50;15.65;;;5.20;89.00;;;;;;1905406;75;21027;-47
2022/02/16 00:41:35;;;;;;;20.15;12.93;;;5.20;89.00;;;;;;1905407;75;21031;-47
2022/02/16 00:44:05;;;;;;;25.32;13.30;;;5.20;89.00;;;;;;1905234;75;21048;-46
2022/02/16 00:46:34;;;;;;;21.60;12.37;;;5.20;89.10;;;;;;1905250;75;21136;-47
2022/02/16 00:49:04;;;;;;;21.33;12.60;;;5.20;88.70;;;;;;1905332;75;21128;-47
2022/02/16 00:51:34;;;;;;;20.70;11.33;;;5.10;88.80;;;;;;1905193;74;21093;-46
2022/02/16 00:54:03;;;;;;;26.57;12.95;;;5.10;89.00;;;;;;1905284;75;21085;-46
2022/02/16 00:56:34;;;;;;;23.05;13.05;;;5.10;89.10;;;;;;1905203;75;21067;-47
2022/02/16 00:59:03;;;;;;;19.20;11.85;;;5.10;88.70;;;;;;1905464;75;21023;-46
2022/02/16 01:01:33;;;;;;;20.57;10.72;;;5.00;87.70;;;;;;1905239;75;21081;-47
2022/02/16 01:04:02;;;;;;;27.20;13.30;;;4.90;87.90;;;;;;1905270;75;20995;-46
2022/02/16 01:06:31;;;;;;;21.23;12.35;;;4.90;88.50;;;;;;1918746;74;21050;-46
2022/02/16 01:09:01;;;;;;;20.52;11.10;;;4.80;88.80;;;;;;1924777;74;21086;-46
2022/02/16 01:11:30;;;;;;;25.12;11.20;;;4.80;88.10;;;;;;1924752;74;21023;-46
2022/02/16 01:14:01;;;;;;;16.77;10.80;;;4.70;87.60;;;;;;1904054;74;21085;-46
2022/02/16 01:16:35;;;;;;;16.52;10.98;;;4.70;88.20;;;;;;1924906;74;21050;-46
2022/02/16 01:19:05;;;;;;;19.87;11.28;;;4.70;88.70;;;;;;1924258;74;21111;-46
2022/02/16 01:21:35;;;;;;;18.30;12.28;;;4.70;89.00;;;;;;1924737;74;21066;-46
2022/02/16 01:24:06;;;;;;;21.48;11.30;;;4.80;89.10;;;;;;1924564;74;21073;-46
2022/02/16 01:26:36;;;;;;;22.30;12.30;;;4.80;89.00;;;;;;1924986;74;21043;-46
2022/02/16 01:29:07;;;;;;;19.70;11.55;;;4.90;89.30;;;;;;1923666;74;21109;-46
2022/02/16 01:31:38;;;;;;;23.80;12.00;;;4.90;89.20;;;;;;1924558;74;21022;-47
2022/02/16 01:34:08;;;;;;;20.23;11.18;;;4.90;89.30;;;;;;1924654;74;21035;-46
2022/02/16 01:36:38;;;;;;;18.40;10.40;;;5.00;89.80;;;;;;1924866;74;21019;-47
2022/02/16 01:39:07;;;;;;;20.68;11.78;;;5.00;89.30;;;;;;1924849;74;21088;-47
2022/02/16 01:41:44;;;;;;;15.83;10.30;;;5.00;89.20;;;;;;1924448;74;21094;-46
2022/02/16 01:44:20;;;;;;;15.45;9.50;;;5.00;89.30;;;;;;1924018;74;21039;-46
2022/02/16 01:46:51;;;;;;;15.32;9.58;;;5.10;89.40;;;;;;1924794;74;21492;-47
2022/02/16 01:49:23;;;;;;;20.05;10.20;;;5.10;89.40;;;;;;1924762;74;21034;-46
2022/02/16 01:51:52;;;;;;;14.90;10.25;;;5.10;89.50;;;;;;1924843;74;21096;-47
2022/02/16 01:54:23;;;;;;;16.05;11.10;;;5.10;89.60;;;;;;1924370;74;21159;-47
2022/02/16 01:56:53;;;;;;;18.60;11.53;;;5.10;89.50;;;;;;1924788;74;21022;-46
2022/02/16 01:59:25;;;;;;;21.25;11.40;;;5.20;89.70;;;;;;1924615;74;21022;-46
2022/02/16 02:02:11;;;;;;;17.48;11.28;;;5.10;89.20;;;;;;1826924;78;21080;-47
2022/02/16 02:04:42;;;;;;;16.30;10.68;;;5.10;89.20;;;;;;1893745;74;21022;-46
2022/02/16 02:07:14;;;;;;;17.37;9.85;;;5.00;89.50;;;;;;1911279;74;21128;-47
2022/02/16 02:09:43;;;;;;;17.12;9.98;;;5.00;89.70;;;;;;1905400;75;21020;-48
2022/02/16 02:12:14;;;;;;;16.82;9.45;;;5.00;90.00;;;;;;1905277;74;21093;-47
2022/02/16 02:14:44;;;;;;;19.00;10.35;;;5.00;89.80;;;;;;1905594;75;21089;-47
2022/02/16 02:17:15;;;;;;;16.97;10.15;;;5.10;89.90;;;;;;1904682;74;21164;-47
2022/02/16 02:19:44;;;;;;;17.62;10.93;;;5.10;90.00;;;;;;1905324;75;21023;-47
2022/02/16 02:22:13;;;;;;;20.48;11.25;;;5.10;89.90;;;;;;1905330;74;21012;-46
2022/02/16 02:24:43;;;;;;;16.25;10.10;;;5.20;90.20;;;;;;1905558;75;21039;-47
2022/02/16 02:27:13;;;;;;;19.85;11.95;;;5.20;90.00;;;;;;1905426;75;21082;-47
2022/02/16 02:29:43;;;;;;;20.30;12.20;;;5.20;89.20;;;;;;1905438;75;21027;-47
2022/02/16 02:32:17;;;;;;;24.75;13.65;;;5.10;89.30;;;;;;1905319;75;21081;-46
2022/02/16 02:34:47;;;;;;;28.83;13.78;;;5.10;89.60;;;;;;1905277;75;21023;-47
2022/02/16 02:37:16;;;;;;;18.35;12.73;;;5.00;89.50;;;;;;1905352;75;21099;-47
2022/02/16 02:39:45;;;;;;;25.77;13.13;;;5.00;89.70;;;;;;1905371;74;21066;-47
2022/02/16 02:42:15;;;;;;;23.27;14.18;;;5.00;89.70;;;;;;1905325;75;21074;-46
2022/02/16 02:44:45;;;;;;;29.45;15.38;;;5.00;89.90;;;;;;1905450;75;21042;-46
2022/02/16 02:47:14;;;;;;;23.70;14.80;;;5.00;90.00;;;;;;1905408;74;21015;-46
2022/02/16 02:49:45;;;;;;;27.73;13.48;;;5.10;90.00;;;;;;1905510;75;21031;-46
2022/02/16 02:52:14;;;;;;;18.95;13.08;;;5.10;90.00;;;;;;1905364;75;21474;-46
2022/02/16 02:54:43;;;;;;;30.10;15.38;;;5.10;89.90;;;;;;1905343;75;21089;-46
2022/02/16 02:57:13;;;;;;;27.98;15.88;;;5.10;90.00;;;;;;1905390;75;21016;-46
2022/02/16 02:59:43;;;;;;;35.50;18.20;;;5.20;90.00;;;;;;1905413;75;21079;-46
2022/02/16 03:02:13;;;;;;;41.95;22.73;;;5.20;90.20;;;;;;1905452;75;21089;-45
2022/02/16 03:04:42;;;;;;;41.02;22.55;;;5.20;89.20;;;;;;1905464;75;21093;-46
2022/02/16 03:07:12;;;;;;;33.02;19.95;;;5.10;88.90;;;;;;1913691;74;21539;-46
2022/02/16 03:09:41;;;;;;;34.70;18.70;;;5.00;89.20;;;;;;1924828;74;21022;-47
2022/02/16 03:12:11;;;;;;;46.65;23.62;;;5.00;89.60;;;;;;1924736;74;20998;-47
2022/02/16 03:14:41;;;;;;;45.90;23.20;;;5.10;89.80;;;;;;1903999;74;21011;-46
2022/02/16 03:17:10;;;;;;;34.80;17.25;;;5.10;89.60;;;;;;1924861;74;20999;-47
2022/02/16 03:19:41;;;;;;;34.38;17.32;;;5.00;88.30;;;;;;1924747;74;21015;-46
2022/02/16 03:22:10;;;;;;;24.35;14.35;;;4.90;88.80;;;;;;1924828;74;21019;-47
2022/02/16 03:24:40;;;;;;;19.35;12.35;;;4.80;88.80;;;;;;1924793;74;21511;-48
2022/02/16 03:27:11;;;;;;;23.02;11.95;;;4.80;88.90;;;;;;1924740;74;21034;-47
2022/02/16 03:30:01;;;;;;;21.15;12.85;;;4.60;89.00;;;;;;1924192;74;21059;-46
2022/02/16 03:32:32;;;;;;;21.17;11.12;;;4.60;89.50;;;;;;1924476;74;21103;-46
2022/02/16 03:35:01;;;;;;;18.60;11.70;;;4.60;89.50;;;;;;1924691;74;21084;-46
2022/02/16 03:37:30;;;;;;;17.42;11.18;;;4.60;89.80;;;;;;1924898;74;20999;-47
2022/02/16 03:39:59;;;;;;;18.30;11.28;;;4.70;90.00;;;;;;1924700;74;21018;-47
2022/02/16 03:42:31;;;;;;;19.50;11.38;;;4.80;90.10;;;;;;1924830;74;21457;-48
2022/02/16 03:45:00;;;;;;;20.65;11.60;;;4.90;90.10;;;;;;1924769;74;21077;-47
2022/02/16 03:47:31;;;;;;;18.85;12.05;;;5.00;90.10;;;;;;1923118;74;21107;-46
2022/02/16 03:50:01;;;;;;;23.83;12.10;;;5.10;90.00;;;;;;1924692;74;21018;-46
2022/02/16 03:52:31;;;;;;;18.40;12.25;;;5.10;90.00;;;;;;1924619;74;20991;-46
2022/02/16 03:55:00;;;;;;;20.80;12.47;;;5.20;90.00;;;;;;1924765;74;21022;-46
2022/02/16 03:57:30;;;;;;;23.38;12.23;;;5.20;90.00;;;;;;1924715;74;21047;-47
2022/02/16 04:00:00;;;;;;;20.88;12.18;;;5.30;90.10;;;;;;1924748;74;20998;-47
2022/02/16 04:02:31;;;;;;;19.02;11.78;;;5.30;90.10;;;;;;1912032;74;21112;-47
2022/02/16 04:05:01;;;;;;;56.25;32.38;;;5.30;90.10;;;;;;1924678;74;21023;-46
2022/02/16 04:07:30;;;;;;;27.07;15.58;;;5.30;90.10;;;;;;1924725;74;21058;-46
2022/02/16 04:10:00;;;;;;;28.80;14.40;;;5.30;90.10;;;;;;1924829;74;21002;-47
2022/02/16 04:12:29;;;;;;;25.75;13.80;;;5.40;90.00;;;;;;1924628;74;21038;-47
2022/02/16 04:14:59;;;;;;;20.90;14.70;;;5.40;90.00;;;;;;1924724;74;20991;-47
2022/02/16 04:17:29;;;;;;;24.47;14.93;;;5.40;90.10;;;;;;1924800;74;21020;-47
2022/02/16 04:19:59;;;;;;;41.10;27.58;;;5.40;90.20;;;;;;1924346;74;21034;-46
2022/02/16 04:22:29;;;;;;;26.87;14.50;;;5.40;90.40;;;;;;1924663;74;21405;-47
2022/02/16 04:24:58;;;;;;;26.97;17.23;;;5.50;90.30;;;;;;1924613;74;21014;-47
2022/02/16 04:27:28;;;;;;;29.63;16.15;;;5.50;90.20;;;;;;1924777;74;21084;-47
2022/02/16 04:29:57;;;;;;;26.07;14.28;;;5.50;90.20;;;;;;1924603;74;21050;-46
2022/02/16 04:32:27;;;;;;;23.20;14.38;;;5.50;90.20;;;;;;1924579;74;21027;-47
2022/02/16 04:34:56;;;;;;;27.02;15.50;;;5.50;90.20;;;;;;1924628;74;21128;-46
2022/02/16 04:37:26;;;;;;;23.80;14.10;;;5.50;90.20;;;;;;1924715;74;21070;-46
2022/02/16 04:39:56;;;;;;;27.65;15.98;;;5.50;90.30;;;;;;1924813;74;21003;-47
2022/02/16 04:42:26;;;;;;;22.37;13.85;;;5.50;90.30;;;;;;1924957;74;21168;-47
2022/02/16 04:44:56;;;;;;;26.57;15.28;;;5.50;90.30;;;;;;1925005;74;21066;-48
2022/02/16 04:47:25;;;;;;;26.27;16.97;;;5.50;90.30;;;;;;1904152;74;21085;-48
2022/02/16 04:49:55;;;;;;;25.90;15.53;;;5.60;90.40;;;;;;1924979;74;21058;-48
2022/02/16 04:52:34;;;;;;;29.70;17.27;;;5.60;90.40;;;;;;1924802;74;21042;-47
2022/02/16 04:54:55;;;;;;;22.58;15.72;;;5.60;90.40;;;;;;1923654;74;21090;-48
2022/02/16 04:57:25;;;;;;;24.72;15.23;;;5.70;90.40;;;;;;1924998;74;21030;-48
2022/02/16 04:59:58;;;;;;;25.40;14.95;;;5.70;90.40;;;;;;1924772;74;21063;-48
2022/02/16 05:02:27;;;;;;;27.82;15.38;;;5.70;90.40;;;;;;1924907;74;21110;-48
2022/02/16 05:04:57;;;;;;;24.45;14.95;;;5.70;90.40;;;;;;1924874;74;21096;-48
2022/02/16 05:07:26;;;;;;;22.37;14.85;;;5.70;90.40;;;;;;1924849;74;21042;-47
2022/02/16 05:09:55;;;;;;;27.48;16.87;;;5.70;90.40;;;;;;1924823;74;21015;-48
2022/02/16 05:12:25;;;;;;;26.27;14.75;;;5.80;90.50;;;;;;1924917;74;21011;-48
2022/02/16 05:14:54;;;;;;;22.50;15.88;;;5.80;90.50;;;;;;1924781;74;21116;-48
2022/02/16 05:17:25;;;;;;;18.95;13.43;;;5.80;90.50;;;;;;1924931;74;21105;-48
2022/02/16 05:19:54;;;;;;;19.27;12.15;;;5.70;90.30;;;;;;1924872;74;21018;-48
2022/02/16 05:22:24;;;;;;;16.77;11.83;;;5.70;90.40;;;;;;1924903;74;21085;-48
2022/02/16 05:24:53;;;;;;;20.27;12.15;;;5.70;90.40;;;;;;1924687;74;21068;-48
2022/02/16 05:27:23;;;;;;;21.90;11.78;;;5.70;90.30;;;;;;1924835;74;20994;-47
2022/02/16 05:29:53;;;;;;;17.52;11.40;;;5.60;90.30;;;;;;1924874;74;21019;-48
2022/02/16 05:32:23;;;;;;;14.68;10.15;;;5.60;90.30;;;;;;1924752;74;21015;-47
2022/02/16 05:34:52;;;;;;;15.40;8.48;;;5.60;90.30;;;;;;1924758;74;21018;-47
2022/02/16 05:37:22;;;;;;;14.38;8.90;;;5.50;90.00;;;;;;1924689;74;21068;-48
2022/02/16 05:39:52;;;;;;;21.87;10.88;;;5.50;90.00;;;;;;1924753;74;21023;-47
2022/02/16 05:42:22;;;;;;;17.35;9.15;;;5.50;89.90;;;;;;1924809;74;20991;-47
2022/02/16 05:44:53;;;;;;;19.60;9.08;;;5.50;90.00;;;;;;1924795;74;21051;-47
2022/02/16 05:47:23;;;;;;;13.95;9.70;;;5.40;90.10;;;;;;1924835;74;21092;-47
2022/02/16 05:49:53;;;;;;;16.70;10.08;;;5.50;90.30;;;;;;1924860;74;21023;-47
2022/02/16 05:52:22;;;;;;;12.33;8.53;;;5.50;90.20;;;;;;1924643;74;21015;-47
2022/02/16 05:54:52;;;;;;;12.23;7.70;;;5.50;90.00;;;;;;1924701;74;21027;-47
2022/02/16 05:57:21;;;;;;;9.38;7.10;;;5.50;90.10;;;;;;1924818;74;20999;-48
2022/02/16 05:59:51;;;;;;;11.60;7.67;;;5.50;90.00;;;;;;1924707;74;21080;-47
2022/02/16 06:02:20;;;;;;;11.88;7.22;;;5.50;90.10;;;;;;1924865;74;21080;-47
2022/02/16 06:04:50;;;;;;;11.25;7.35;;;5.60;90.20;;;;;;1924711;74;21018;-47
2022/02/16 06:07:19;;;;;;;10.72;7.97;;;5.60;90.10;;;;;;1924720;74;21128;-47
2022/02/16 06:09:49;;;;;;;10.85;6.75;;;5.60;90.00;;;;;;1924643;74;21106;-47
2022/02/16 06:12:18;;;;;;;12.53;7.58;;;5.70;89.70;;;;;;1924788;74;21003;-48
2022/02/16 06:14:48;;;;;;;12.13;7.55;;;5.70;89.50;;;;;;1924700;74;21068;-48
2022/02/16 06:17:17;;;;;;;11.22;8.50;;;5.60;89.10;;;;;;1924731;74;21050;-48
2022/02/16 06:19:48;;;;;;;10.35;7.33;;;5.60;89.40;;;;;;1924627;74;21075;-48
2022/02/16 06:22:18;;;;;;;14.25;8.48;;;5.60;89.10;;;;;;1924828;74;21015;-47
2022/02/16 06:24:48;;;;;;;24.32;13.70;;;5.70;89.30;;;;;;1924849;74;21022;-47
2022/02/16 06:27:17;;;;;;;11.25;7.53;;;5.70;88.90;;;;;;1924879;74;21119;-47
2022/02/16 06:29:47;;;;;;;13.90;8.35;;;5.70;88.60;;;;;;1924801;74;21054;-48
2022/02/16 06:32:20;;;;;;;7.65;6.03;;;5.70;88.70;;;;;;1924541;74;21059;-47
2022/02/16 06:34:52;;;;;;;8.50;5.87;;;5.70;86.20;;;;;;1924711;74;21014;-48
2022/02/16 06:37:21;;;;;;;11.75;6.40;;;5.70;87.20;;;;;;1924829;74;21014;-47
2022/02/16 06:39:51;;;;;;;14.00;6.90;;;5.70;87.50;;;;;;1924701;74;21116;-47
2022/02/16 06:42:21;;;;;;;18.77;9.98;;;5.80;84.70;;;;;;1924657;74;21018;-47
2022/02/16 06:44:50;;;;;;;19.70;10.75;;;5.80;86.70;;;;;;1924705;74;21022;-48
2022/02/16 06:47:21;;;;;;;20.72;12.35;;;5.80;87.20;;;;;;1924502;74;21164;-49
2022/02/16 06:49:52;;;;;;;19.82;12.40;;;5.90;87.60;;;;;;1924773;74;20991;-48
2022/02/16 06:52:21;;;;;;;16.75;10.28;;;5.90;87.70;;;;;;1924675;74;21084;-48
2022/02/16 06:54:50;;;;;;;16.73;9.90;;;6.00;87.50;;;;;;1924584;74;21019;-47
2022/02/16 06:57:19;;;;;;;18.37;11.83;;;6.00;87.80;;;;;;1924795;74;21027;-48
2022/02/16 07:00:00;;;;;;;25.20;14.45;;;6.10;87.90;;;;;;1923141;74;21149;-48
2022/02/16 07:02:29;;;;;;;21.45;11.97;;;6.20;88.00;;;;;;1924611;74;21092;-48
2022/02/16 07:04:58;;;;;;;16.73;9.70;;;6.20;88.00;;;;;;1924740;74;21094;-48
2022/02/16 07:07:30;;;;;;;18.70;10.68;;;6.30;88.10;;;;;;1924632;74;21007;-48
2022/02/16 07:09:59;;;;;;;19.42;10.45;;;6.30;87.90;;;;;;1913094;74;21552;-48
2022/02/16 07:12:30;;;;;;;16.05;10.25;;;6.40;87.80;;;;;;1905332;75;21486;-48
2022/02/16 07:14:59;;;;;;;19.50;10.40;;;6.40;87.20;;;;;;1905428;74;21031;-49
2022/02/16 07:17:29;;;;;;;17.00;10.20;;;6.40;87.40;;;;;;1892415;75;21015;-47
2022/02/16 07:19:58;;;;;;;14.38;9.75;;;6.40;87.50;;;;;;1905361;74;21028;-47
2022/02/16 07:22:29;;;;;;;12.75;8.68;;;6.40;87.20;;;;;;1905286;75;20979;-46
2022/02/16 07:24:58;;;;;;;19.23;9.45;;;6.40;87.70;;;;;;1905297;75;21088;-46
2022/02/16 07:27:28;;;;;;;15.65;9.55;;;6.40;86.70;;;;;;1905256;74;21102;-46
2022/02/16 07:29:57;;;;;;;15.93;9.90;;;6.40;87.10;;;;;;1905247;75;21063;-47
2022/02/16 07:32:26;;;;;;;14.13;10.00;;;6.40;87.10;;;;;;1905428;75;21093;-47
2022/02/16 07:34:56;;;;;;;18.40;10.98;;;6.40;87.30;;;;;;1905244;75;21094;-47
2022/02/16 07:37:26;;;;;;;17.30;11.10;;;6.40;87.40;;;;;;1905171;75;21019;-46
2022/02/16 07:39:57;;;;;;;14.73;10.25;;;6.40;87.30;;;;;;1905391;75;21077;-47
2022/02/16 07:42:26;;;;;;;14.50;9.05;;;6.50;87.40;;;;;;1905499;75;21482;-46
2022/02/16 07:44:58;;;;;;;11.78;8.33;;;6.50;87.10;;;;;;1903214;75;21046;-46
2022/02/16 07:47:29;;;;;;;11.60;7.22;;;6.60;87.30;;;;;;1905543;75;21044;-46
2022/02/16 07:50:00;;;;;;;9.00;7.03;;;6.60;86.70;;;;;;1904756;74;21050;-47
2022/02/16 07:52:38;;;;;;;9.53;6.85;;;6.60;87.20;;;;;;1905384;74;21165;-47
2022/02/16 07:55:09;;;;;;;11.68;6.33;;;6.70;87.10;;;;;;1892154;75;21064;-46
2022/02/16 07:57:39;;;;;;;9.63;7.65;;;6.70;86.80;;;;;;1905301;75;20995;-46
2022/02/16 08:00:09;;;;;;;9.95;7.05;;;6.80;86.90;;;;;;1905263;75;21015;-46
2022/02/16 08:02:46;;;;;;;13.50;7.40;;;6.80;86.80;;;;;;1905182;74;21067;-47
2022/02/16 08:05:17;;;;;;;12.28;7.55;;;6.80;86.60;;;;;;1904891;74;21143;-47
2022/02/16 08:07:47;;;;;;;11.57;7.45;;;6.80;85.60;;;;;;1905372;75;21087;-47
2022/02/16 08:10:16;;;;;;;9.38;7.05;;;6.90;85.50;;;;;;1914234;74;21116;-47
2022/02/16 08:12:47;;;;;;;10.00;6.85;;;6.90;85.90;;;;;;1924613;74;21039;-46
2022/02/16 08:15:17;;;;;;;8.68;6.90;;;6.90;85.70;;;;;;1924701;74;21087;-47
2022/02/16 08:17:47;;;;;;;12.50;7.47;;;6.90;85.50;;;;;;1924747;74;21269;-47
2022/02/16 08:20:16;;;;;;;7.83;5.85;;;7.00;85.60;;;;;;1924784;74;21104;-47
2022/02/16 08:22:47;;;;;;;11.03;6.42;;;7.10;85.60;;;;;;1920549;74;21077;-46
2022/02/16 08:25:18;;;;;;;8.15;5.58;;;7.10;86.00;;;;;;1924974;74;21027;-47
2022/02/16 08:27:53;;;;;;;8.95;5.70;;;7.10;85.60;;;;;;1923493;74;21132;-47
2022/02/16 08:30:23;;;;;;;15.45;6.83;;;7.20;85.80;;;;;;1924826;74;21086;-46
2022/02/16 08:32:53;;;;;;;16.50;8.45;;;7.30;85.30;;;;;;1924765;74;20991;-47
2022/02/16 08:35:36;;;;;;;11.40;6.92;;;7.30;85.20;;;;;;1924643;74;21064;-46
2022/02/16 08:38:05;;;;;;;23.18;15.63;;;7.30;84.20;;;;;;1924884;74;21031;-47
2022/02/16 08:40:34;;;;;;;10.03;7.28;;;7.30;84.70;;;;;;1924871;74;20999;-47
2022/02/16 08:43:04;;;;;;;14.55;8.40;;;7.30;83.60;;;;;;1924840;74;21010;-46
2022/02/16 08:45:33;;;;;;;14.07;7.25;;;7.30;83.50;;;;;;1924713;74;21047;-48
2022/02/16 08:48:03;;;;;;;12.93;6.75;;;7.30;83.00;;;;;;1924718;74;21014;-47
2022/02/16 08:50:32;;;;;;;9.05;5.97;;;7.30;82.80;;;;;;1924866;74;21023;-47
2022/02/16 08:53:02;;;;;;;7.97;5.45;;;7.30;83.50;;;;;;1924740;74;21085;-47
2022/02/16 08:55:31;;;;;;;10.05;5.35;;;7.40;83.80;;;;;;1924868;74;21034;-47
2022/02/16 08:58:01;;;;;;;8.18;5.12;;;7.40;83.10;;;;;;1924684;74;21026;-47
2022/02/16 09:00:30;;;;;;;11.40;7.15;;;7.40;83.10;;;;;;1924722;74;21191;-47
2022/02/16 09:02:59;;;;;;;13.68;5.45;;;7.40;83.40;;;;;;1924841;74;21024;-47
2022/02/16 09:05:29;;;;;;;9.23;5.30;;;7.40;83.10;;;;;;1924073;74;21081;-47
2022/02/16 11:32:53;;;;;;;8.83;5.70;;;8.80;63.60;;;;;;1973313;72;25558;-48
2022/02/16 11:35:27;;;;;;;10.63;6.42;;;8.70;69.40;;;;;;1949229;73;21486;-49
2022/02/16 11:38:08;;;;;;;8.18;5.30;;;8.80;69.90;;;;;;1949091;73;21085;-48
2022/02/16 11:40:40;;;;;;;10.58;6.00;;;8.80;68.10;;;;;;1949023;73;21023;-48
2022/02/16 11:43:11;;;;;;;9.85;5.45;;;8.90;68.80;;;;;;1949098;73;21061;-49
2022/02/16 11:45:54;;;;;;;6.80;4.47;;;8.90;69.10;;;;;;1949079;73;21096;-48
2022/02/16 11:48:37;;;;;;;7.92;4.83;;;8.90;67.80;;;;;;1949134;73;21036;-49
2022/02/16 11:51:33;;;;;;;12.05;5.12;;;9.00;67.30;;;;;;1911255;75;21136;-48
2022/02/16 11:53:58;;;;;;;20.45;6.08;;;9.00;68.60;;;;;;1873625;76;21047;-48
2022/02/16 11:56:31;;;;;;;9.63;4.60;;;9.00;68.80;;;;;;1875095;76;21117;-48
2022/02/16 11:59:18;;;;;;;9.30;5.28;;;9.00;66.10;;;;;;1948053;73;21035;-48
2022/02/16 12:02:08;;;;;;;7.92;4.47;;;9.00;68.40;;;;;;1949050;73;21101;-48
2022/02/16 12:04:52;;;;;;;7.15;4.90;;;8.90;65.30;;;;;;1949217;73;21108;-48
2022/02/16 12:07:27;;;;;;;12.07;5.10;;;8.90;67.40;;;;;;1949114;73;21117;-50
2022/02/16 12:10:18;;;;;;;9.80;4.85;;;8.90;67.90;;;;;;1948802;73;21014;-48
2022/02/16 12:12:49;;;;;;;9.60;5.15;;;8.90;66.90;;;;;;1949053;73;21010;-47
2022/02/16 12:15:21;;;;;;;9.38;6.50;;;8.90;68.50;;;;;;1949074;73;21011;-48
2022/02/16 12:17:51;;;;;;;9.83;5.53;;;9.00;67.20;;;;;;1949279;73;21002;-49
2022/02/16 12:20:22;;;;;;;9.30;6.10;;;9.00;68.00;;;;;;1949059;73;21022;-48
2022/02/16 12:22:52;;;;;;;14.63;8.88;;;9.00;65.70;;;;;;1949141;73;21038;-48
2022/02/16 12:25:21;;;;;;;54.15;28.98;;;9.00;65.50;;;;;;1949121;73;21030;-49
2022/02/16 12:27:51;;;;;;;159.32;77.40;;;9.00;68.20;;;;;;1949136;73;21026;-48
2022/02/16 12:30:21;;;;;;;138.50;80.35;;;9.00;66.80;;;;;;1949159;73;21018;-47
2022/02/16 12:32:52;;;;;;;21.27;13.98;;;9.00;65.10;;;;;;1947219;73;21047;-49
2022/02/16 12:35:23;;;;;;;26.05;15.72;;;9.00;66.40;;;;;;1949477;73;21011;-48
2022/02/16 12:37:53;;;;;;;35.20;18.25;;;9.00;67.50;;;;;;1949406;73;21023;-48
2022/02/16 12:40:26;;;;;;;182.62;96.90;;;9.00;67.10;;;;;;1949456;73;21104;-49
2022/02/16 12:42:56;;;;;;;18.57;12.95;;;9.10;66.80;;;;;;1949043;73;21097;-48
2022/02/16 12:45:27;;;;;;;35.63;29.25;;;9.10;67.10;;;;;;1948836;74;21120;-50
2022/02/16 12:47:59;;;;;;;18.90;15.15;;;9.20;65.60;;;;;;1948844;74;21038;-49
2022/02/16 12:50:30;;;;;;;19.42;13.48;;;9.20;66.00;;;;;;1948840;73;21038;-49
2022/02/16 12:53:04;;;;;;;11.30;8.38;;;9.20;64.70;;;;;;1948758;74;21022;-49
2022/02/16 12:55:42;;;;;;;16.15;12.50;;;9.30;63.60;;;;;;1948433;73;21160;-48
2022/02/16 12:58:13;;;;;;;13.15;7.55;;;9.40;64.20;;;;;;1948215;74;21531;-48
2022/02/16 13:00:47;;;;;;;13.38;8.20;;;9.40;65.10;;;;;;1948727;74;21100;-49
2022/02/16 13:03:17;;;;;;;15.28;9.63;;;9.50;65.70;;;;;;1948614;74;21104;-48
2022/02/16 13:05:49;;;;;;;10.43;6.20;;;9.60;66.00;;;;;;1948810;74;20998;-48
2022/02/16 13:08:19;;;;;;;13.05;9.10;;;9.60;64.20;;;;;;1948700;74;21039;-49
2022/02/16 13:10:49;;;;;;;10.50;5.92;;;9.60;65.20;;;;;;1948799;74;21034;-48
2022/02/16 13:13:23;;;;;;;8.23;4.60;;;9.70;63.00;;;;;;1948801;74;20999;-48
2022/02/16 13:15:52;;;;;;;10.68;5.47;;;9.70;61.60;;;;;;1949049;74;21131;-48
2022/02/16 13:18:43;;;;;;;9.38;5.62;;;9.80;60.60;;;;;;1948746;74;21093;-49
2022/02/16 13:21:23;;;;;;;15.30;6.78;;;9.80;60.60;;;;;;1875958;75;21531;-48
2022/02/16 13:24:04;;;;;;;11.73;5.20;;;9.90;60.30;;;;;;1958672;73;21050;-48
2022/02/16 13:26:42;;;;;;;12.55;6.30;;;9.90;60.50;;;;;;1958723;73;21160;-49
2022/02/16 13:29:12;;;;;;;10.10;5.75;;;9.90;61.90;;;;;;1958771;73;20999;-48
2022/02/16 13:31:42;;;;;;;9.73;5.92;;;10.00;58.60;;;;;;1958566;73;21026;-49
2022/02/16 13:34:12;;;;;;;15.53;6.12;;;10.00;58.50;;;;;;1958801;73;21014;-48
2022/02/16 13:36:44;;;;;;;9.70;5.67;;;10.00;57.50;;;;;;1958752;73;21112;-49
2022/02/16 13:39:24;;;;;;;7.65;4.97;;;10.00;58.60;;;;;;1958793;73;21488;-49
2022/02/16 13:42:01;;;;;;;8.88;4.87;;;9.90;57.00;;;;;;1958610;73;21722;-49
2022/02/16 13:44:33;;;;;;;14.00;5.40;;;9.90;57.60;;;;;;1958670;73;21082;-48
2022/02/16 13:47:04;;;;;;;6.65;4.60;;;9.90;58.10;;;;;;1958777;73;21002;-48
2022/02/16 13:49:34;;;;;;;5.70;4.53;;;9.80;58.10;;;;;;1958784;73;21015;-48
2022/02/16 13:52:12;;;;;;;7.17;4.70;;;9.80;59.20;;;;;;1958613;73;21061;-48
2022/02/16 13:54:42;;;;;;;9.93;5.03;;;9.80;58.90;;;;;;1958618;73;21041;-50
2022/02/16 13:57:18;;;;;;;8.75;5.08;;;9.80;59.50;;;;;;1958649;73;21095;-48
2022/02/16 13:59:56;;;;;;;14.10;5.37;;;9.70;59.90;;;;;;1958825;73;21107;-48
2022/02/16 14:02:26;;;;;;;14.05;5.05;;;9.70;59.20;;;;;;1958699;73;21103;-49
2022/02/16 14:05:02;;;;;;;7.47;4.53;;;9.60;59.00;;;;;;1958750;73;21018;-49
2022/02/16 14:07:31;;;;;;;13.40;7.35;;;9.60;58.60;;;;;;1958951;73;20994;-48
2022/02/16 14:10:01;;;;;;;6.58;4.58;;;9.60;59.00;;;;;;1958677;73;21089;-49
2022/02/16 14:12:30;;;;;;;11.73;5.03;;;9.50;57.60;;;;;;1958593;73;21104;-48
2022/02/16 14:15:00;;;;;;;7.55;3.92;;;9.50;56.90;;;;;;1958636;73;21116;-51
2022/02/16 14:17:29;;;;;;;12.70;4.75;;;9.40;58.80;;;;;;1958635;73;21027;-49
2022/02/16 14:19:58;;;;;;;11.40;4.92;;;9.40;59.00;;;;;;1958662;73;21018;-48
2022/02/16 14:22:28;;;;;;;8.13;4.47;;;9.40;59.60;;;;;;1958723;73;21002;-50
2022/02/16 14:24:57;;;;;;;8.68;5.60;;;9.30;58.70;;;;;;1958668;73;21026;-48
2022/02/16 14:27:27;;;;;;;15.72;5.50;;;9.20;59.20;;;;;;1958588;73;21096;-48
2022/02/16 14:29:56;;;;;;;14.65;6.90;;;9.20;59.10;;;;;;1958690;73;21131;-50
2022/02/16 14:32:26;;;;;;;18.02;6.15;;;9.10;59.60;;;;;;1958059;73;21022;-49
2022/02/16 14:34:59;;;;;;;14.25;6.60;;;9.10;59.70;;;;;;1948562;74;21031;-49
2022/02/16 14:37:37;;;;;;;19.12;6.67;;;9.00;60.50;;;;;;1948411;74;21523;-49
2022/02/16 14:40:01;;;;;;;14.23;6.58;;;9.00;61.40;;;;;;1946044;74;21147;-48
2022/02/16 14:42:31;;;;;;;20.85;6.95;;;8.90;61.60;;;;;;1948440;74;21505;-49
2022/02/16 14:45:02;;;;;;;23.38;6.72;;;8.80;61.90;;;;;;1948432;74;21010;-49
2022/02/16 14:47:32;;;;;;;10.55;5.40;;;8.80;62.50;;;;;;1948490;74;20994;-49
2022/02/16 14:50:03;;;;;;;17.87;6.17;;;8.80;62.70;;;;;;1948491;74;21018;-49
2022/02/16 14:52:34;;;;;;;18.40;6.30;;;8.70;62.50;;;;;;1948249;74;21084;-48
2022/02/16 14:55:05;;;;;;;14.03;5.40;;;8.70;63.30;;;;;;1948470;74;21022;-49
2022/02/16 14:57:34;;;;;;;20.85;5.67;;;8.60;63.90;;;;;;1948350;74;21019;-48
2022/02/16 15:00:04;;;;;;;17.75;6.15;;;8.60;64.50;;;;;;1948507;74;21011;-48
2022/02/16 15:02:34;;;;;;;28.95;6.58;;;8.60;64.80;;;;;;1948318;74;21097;-49
2022/02/16 15:05:03;;;;;;;17.57;5.70;;;8.60;65.10;;;;;;1948424;74;21023;-49
2022/02/16 15:07:33;;;;;;;10.70;6.10;;;8.50;65.30;;;;;;1948306;74;20998;-48
2022/02/16 15:10:03;;;;;;;17.15;6.40;;;8.50;65.60;;;;;;1948432;74;21031;-49
2022/02/16 15:12:34;;;;;;;25.30;7.05;;;8.50;66.30;;;;;;1948272;74;21018;-49
2022/02/16 15:15:04;;;;;;;24.18;7.12;;;8.50;66.80;;;;;;1948360;74;21051;-49
2022/02/16 15:17:34;;;;;;;28.05;8.90;;;8.40;66.80;;;;;;1948281;73;21092;-48
2022/02/16 15:20:05;;;;;;;18.07;6.50;;;8.40;66.80;;;;;;1948493;74;21015;-48
2022/02/16 15:22:35;;;;;;;17.27;7.25;;;8.30;67.00;;;;;;1948307;74;21034;-49
2022/02/16 15:25:04;;;;;;;15.30;7.33;;;8.30;67.60;;;;;;1948309;74;21092;-48
2022/02/16 15:27:34;;;;;;;19.15;7.20;;;8.30;68.10;;;;;;1948298;74;21022;-48